This is the latest recevied weather packets stored in our database for station/object JH7UAX-10. If no packets are shown the sender has not sent any weather packets the latest 10 day(s).
| Time | Temp. | Humidity | Pressure | Rain* | Wind** | Luminosity | Snow |
|---|---|---|---|---|---|---|---|
| 1777780378 | 22.22° C | 47% | 1018.9 hPa | 0 mm | - | - | - |
| 1777779906 | 22.22° C | 48% | 1019 hPa | 0 mm | - | - | - |
| 1777779478 | 22.22° C | 50% | 1019.3 hPa | 0 mm | - | - | - |
| 1777778580 | 21.67° C | 51% | 1019.6 hPa | 0 mm | - | - | - |
| 1777778105 | 21.67° C | 50% | 1019.8 hPa | 0 mm | - | - | - |
| 1777777679 | 21.67° C | 49% | 1019.9 hPa | 0 mm | - | - | - |
| 1777777205 | 22.22° C | 48% | 1019.9 hPa | 0 mm | - | - | - |
| 1777776779 | 22.22° C | 47% | 1020.1 hPa | 0 mm | - | - | - |
| 1777776305 | 21.67° C | 48% | 1020.2 hPa | 0 mm | - | - | - |
| 1777775879 | 21.11° C | 49% | 1020.4 hPa | 0 mm | - | - | - |
| 1777775407 | 20.56° C | 51% | 1020.8 hPa | 0 mm | - | - | - |
| 1777774978 | 20.56° C | 52% | 1020.9 hPa | 0 mm | - | - | - |
| 1777774506 | 20.56° C | 53% | 1021 hPa | 0 mm | - | - | - |
| 1777774078 | 20.56° C | 54% | 1021.2 hPa | 0 mm | - | - | - |
| 1777773606 | 20° C | 55% | 1021.4 hPa | 0 mm | - | - | - |
| 1777773180 | 20° C | 53% | 1021.4 hPa | 0 mm | - | - | - |
| 1777772279 | 20° C | 53% | 1021.5 hPa | 0 mm | - | - | - |
| 1777771805 | 19.44° C | 52% | 1021.6 hPa | 0 mm | - | - | - |
| 1777771379 | 19.44° C | 56% | 1021.8 hPa | 0 mm | - | - | - |
| 1777770480 | 18.33° C | 58% | 1022.1 hPa | 0 mm | - | - | - |
| 1777770006 | 18.33° C | 59% | 1022.3 hPa | 0 mm | - | - | - |
| 1777769580 | 17.78° C | 59% | 1022.4 hPa | 0 mm | - | - | - |
| 1777769105 | 17.78° C | 58% | 1022.5 hPa | 0 mm | - | - | - |
| 1777768679 | 18.33° C | 59% | 1022.5 hPa | 0 mm | - | - | - |
| 1777768205 | 17.78° C | 59% | 1022.6 hPa | 0 mm | - | - | - |
* Rain latest hour (hover to see other rain measurements)
** Current wind speed in m/s (hover to see current wind gust speed)